Date,TemperatureHighF,TemperatureAvgF,TemperatureLowF,DewpointHighF,DewpointAvgF,DewpointLowF,HumidityHigh,HumidityAvg,HumidityLow,PressureMaxIn,PressureMinIn,WindSpeedMaxMPH,WindSpeedAvgMPH,GustSpeedMaxMPH,PrecipitationSumIn
2013-5-1,59.7,47.2,34.5,14.9,7.9,-0.4,27,20,17,30.21,30.06,0,0,0,1.73
2013-5-2,60.8,50.6,41.2,16.2,11.5,4.5,28,21,16,30.21,30.03,0,0,0,1.73
2013-5-3,69.6,53.9,41.7,20.6,14.6,9.7,30,22,15,30.06,29.88,0,0,0,1.73
2013-5-4,75.2,59.2,45.9,21.2,15.7,10.1,27,19,13,29.91,29.65,0,0,0,0.00
2013-5-5,81.3,64.0,51.1,23.8,16.1,9.7,20,16,12,29.65,29.41,0,0,0,1.73
2013-5-6,80.1,64.5,52.3,23.7,16.6,10.1,20,16,12,29.50,29.38,0,0,0,1.73
2013-5-7,73.4,60.6,51.3,21.5,16.2,10.0,26,18,13,29.59,29.44,0,0,0,0.00
2013-5-8,69.6,58.0,50.0,23.1,18.2,12.8,28,21,15,29.77,29.59,0,0,0,1.73
2013-5-9,74.3,59.8,48.7,26.5,19.6,14.4,31,22,13,29.85,29.74,0,0,0,1.73
2013-5-10,73.9,61.7,51.3,26.5,20.5,15.8,30,21,13,29.85,29.74,0,0,0,1.73
2013-5-11,72.1,61.3,54.5,26.9,21.2,15.8,30,22,14,29.80,29.62,0,0,0,1.73
2013-5-12,61.5,58.8,56.3,33.6,30.8,26.9,36,34,30,29.71,29.62,0,0,0,1.73
2013-5-13,58.3,54.0,48.6,31.5,27.7,22.2,37,36,35,29.77,29.53,0,0,0,1.73
2013-5-14,61.9,50.9,46.6,27.0,19.8,11.2,37,30,17,29.85,29.77,0,0,0,1.73
2013-5-15,65.5,55.1,47.5,22.2,16.5,10.4,31,22,15,29.77,29.62,0,0,0,1.73
2013-5-16,67.5,56.3,50.2,24.2,17.7,11.3,31,22,15,29.65,29.50,0,0,0,1.73
2013-5-17,59.7,52.9,47.7,25.7,21.7,16.3,35,29,24,29.68,29.56,0,0,0,1.73
2013-5-18,57.2,53.4,50.7,27.5,24.4,20.8,36,32,26,29.91,29.65,0,0,0,1.73
2013-5-19,64.8,54.5,48.2,25.9,20.2,11.5,34,27,16,30.03,29.91,0,0,0,1.73
2013-5-20,65.3,54.5,45.0,23.6,16.5,11.1,32,23,15,30.00,29.53,0,0,0,1.73
2013-5-21,52.7,49.1,46.6,22.7,19.5,12.2,35,31,21,29.53,29.41,0,0,0,0.51
2013-5-22,60.6,51.7,46.0,27.0,19.0,11.3,37,28,17,29.59,29.47,0,0,0,0.20
2013-5-23,62.4,51.1,41.5,24.2,16.4,10.9,36,26,16,29.65,29.59,0,0,0,0.20
2013-5-24,66.2,52.5,42.4,22.4,14.8,8.5,32,23,15,29.65,29.62,0,0,0,0.20
2013-5-25,61.5,50.0,43.9,28.9,18.9,11.6,32,29,24,29.68,29.62,0,0,0,0.20
2013-5-26,58.3,52.6,45.7,24.2,20.6,17.5,34,29,22,29.62,29.59,0,0,0,0.20
2013-5-27,58.5,53.8,51.4,26.3,23.5,19.5,35,31,26,29.59,29.35,0,0,0,0.47
2013-5-28,54.5,52.7,51.3,28.1,26.6,25.4,37,36,35,29.53,29.38,0,0,0,1.18
2013-5-29,55.2,52.1,49.6,29.9,26.8,24.8,39,37,36,29.56,29.32,0,0,0,1.18
2013-5-30,55.4,51.4,48.7,28.8,24.7,21.6,39,35,28,29.85,29.56,0,0,0,0.20
2013-5-31,66.7,54.3,48.0,28.8,21.1,11.3,37,28,15,29.97,29.85,0,0,0,0.20